Time;durP1;ratioP1;P1;durP2;ratioP2;P2;SDS_P1;SDS_P2;PMS_P1;PMS_P2;Temp;Humidity;BMP_temperature;BMP_pressure;BME280_temperature;BME280_humidity;BME280_pressure;Samples;Min_cycle;Max_cycle;Signal;HPM_P1;HPM_P2
2023/09/05 00:01:29;;;;;;;;;;;;;;;26.05;44.79;102328.41;5058111;28;21713;-72
2023/09/05 00:03:56;;;;;;;;;;;;;;;26.01;44.84;102330.59;5059578;28;20112;-71
2023/09/05 00:06:24;;;;;;;;;;;;;;;26.03;44.95;102330.41;5060453;28;20823;-72
2023/09/05 00:08:49;;;;;;;;;;;;;;;26.03;45.06;102331.28;5051886;28;20422;-72
2023/09/05 00:11:15;;;;;;;;;;;;;;;26.02;45.06;102326.09;5053286;28;20780;-73
2023/09/05 00:13:40;;;;;;;;;;;;;;;26.04;44.84;102324.91;5058149;28;19981;-72
2023/09/05 00:16:05;;;;;;;;;;;;;;;26.03;45.18;102319.75;5058490;28;20478;-72
2023/09/05 00:18:31;;;;;;;;;;;;;;;26.02;44.87;102324.25;5058513;28;19992;-72
2023/09/05 00:20:56;;;;;;;;;;;;;;;26.00;45.15;102326.28;5058190;28;19977;-72
2023/09/05 00:23:24;;;;;;;;;;;;;;;26.03;44.90;102312.59;5058632;28;19944;-72
2023/09/05 00:25:50;;;;;;;;;;;;;;;26.04;44.80;102314.25;5061307;28;19948;-72
2023/09/05 00:28:15;;;;;;;;;;;;;;;26.01;45.08;102313.75;5065533;28;19949;-72
2023/09/05 00:30:40;;;;;;;;;;;;;;;26.01;44.92;102319.09;5057495;28;19949;-72
2023/09/05 00:33:06;;;;;;;;;;;;;;;25.98;44.84;102304.28;5062376;28;20430;-71
2023/09/05 00:35:31;;;;;;;;;;;;;;;26.00;44.80;102306.78;5061500;28;19978;-72
2023/09/05 00:37:58;;;;;;;;;;;;;;;26.01;44.94;102311.09;5057174;28;19974;-72
2023/09/05 00:40:23;;;;;;;;;;;;;;;26.00;44.90;102306.78;5051798;28;19944;-72
2023/09/05 00:42:49;;;;;;;;;;;;;;;25.99;44.89;102310.44;5059818;28;19959;-72
2023/09/05 00:45:14;;;;;;;;;;;;;;;25.97;45.12;102305.31;5058593;28;20313;-72
2023/09/05 00:47:39;;;;;;;;;;;;;;;26.00;44.81;102301.44;5088959;27;20023;-72
2023/09/05 00:50:07;;;;;;;;;;;;;;;25.98;45.17;102309.63;5056512;28;19949;-72
2023/09/05 00:52:33;;;;;;;;;;;;;;;25.97;45.08;102299.97;5057125;28;19940;-72
2023/09/05 00:54:58;;;;;;;;;;;;;;;26.00;44.81;102304.94;5062655;28;19962;-72
2023/09/05 00:57:24;;;;;;;;;;;;;;;25.98;44.96;102298.94;5052643;28;19952;-72
2023/09/05 00:59:50;;;;;;;;;;;;;;;25.98;45.21;102301.63;5053106;28;19960;-72
2023/09/05 01:02:15;;;;;;;;;;;;;;;25.98;44.87;102295.44;5062472;28;19965;-72
2023/09/05 01:04:44;;;;;;;;;;;;;;;25.98;44.70;102300.78;5073279;28;19936;-72
2023/09/05 01:07:23;;;;;;;;;;;;;;;25.98;44.84;102303.47;5068750;28;19968;-72
2023/09/05 01:09:55;;;;;;;;;;;;;;;25.98;45.21;102298.94;5057455;28;19943;-73
2023/09/05 01:12:22;;;;;;;;;;;;;;;25.95;44.83;102291.31;5057074;28;19947;-72
2023/09/05 01:14:47;;;;;;;;;;;;;;;25.95;45.20;102294.00;5053867;28;19943;-72
2023/09/05 01:17:12;;;;;;;;;;;;;;;25.98;44.82;102296.28;5057134;28;19958;-72
2023/09/05 01:19:39;;;;;;;;;;;;;;;25.98;44.82;102292.78;5060141;28;19948;-73
2023/09/05 01:22:24;;;;;;;;;;;;;;;25.97;44.99;102289.28;5060671;28;19964;-72
2023/09/05 01:24:50;;;;;;;;;;;;;;;25.98;44.94;102287.44;5072181;28;19949;-73
2023/09/05 01:27:19;;;;;;;;;;;;;;;25.96;44.97;102282.28;5058063;28;20004;-72
2023/09/05 01:29:45;;;;;;;;;;;;;;;25.98;45.00;102276.78;5060500;28;20422;-72
2023/09/05 01:32:10;;;;;;;;;;;;;;;25.95;44.96;102277.97;5059107;28;19946;-71
2023/09/05 01:34:36;;;;;;;;;;;;;;;25.97;44.66;102281.28;5049258;28;19947;-72
2023/09/05 01:37:02;;;;;;;;;;;;;;;25.96;45.06;102268.13;5057862;28;20678;-72
2023/09/05 01:39:27;;;;;;;;;;;;;;;25.95;44.85;102275.31;5057904;28;19940;-70
2023/09/05 01:41:53;;;;;;;;;;;;;;;25.94;45.19;102272.81;5057445;28;20011;-72
2023/09/05 01:44:18;;;;;;;;;;;;;;;25.94;44.79;102273.66;5060862;28;20809;-72
2023/09/05 01:46:44;;;;;;;;;;;;;;;25.92;44.94;102274.84;5060420;28;19944;-72
2023/09/05 01:49:10;;;;;;;;;;;;;;;25.94;45.03;102262.97;5051910;28;19945;-70
2023/09/05 01:51:36;;;;;;;;;;;;;;;25.94;44.74;102270.16;5054947;28;19946;-72
2023/09/05 01:54:02;;;;;;;;;;;;;;;25.95;44.82;102263.81;5056108;28;19963;-71
2023/09/05 01:56:27;;;;;;;;;;;;;;;25.94;44.71;102270.16;5058231;28;20368;-72
2023/09/05 01:58:53;;;;;;;;;;;;;;;25.92;45.01;102262.34;5083158;27;20288;-72
2023/09/05 02:01:18;;;;;;;;;;;;;;;25.91;44.77;102263.34;5086759;27;19969;-73
2023/09/05 02:03:45;;;;;;;;;;;;;;;25.90;44.73;102259.03;5058881;28;20703;-72
2023/09/05 02:06:12;;;;;;;;;;;;;;;25.92;44.75;102261.50;5055500;28;20306;-72
2023/09/05 02:08:38;;;;;;;;;;;;;;;25.90;44.82;102259.03;5058985;28;19953;-72
2023/09/05 02:11:03;;;;;;;;;;;;;;;25.93;44.90;102263.16;5055264;28;19944;-72
2023/09/05 02:13:30;;;;;;;;;;;;;;;25.90;45.01;102261.69;5059846;28;20076;-72
2023/09/05 02:15:55;;;;;;;;;;;;;;;25.90;44.73;102256.34;5058104;28;20052;-72
2023/09/05 02:18:21;;;;;;;;;;;;;;;25.90;44.85;102251.84;5051966;28;20515;-72
2023/09/05 02:20:46;;;;;;;;;;;;;;;25.91;45.09;102252.69;5053692;28;19981;-72
2023/09/05 02:23:12;;;;;;;;;;;;;;;25.89;44.72;102244.03;5056142;28;20359;-72
2023/09/05 02:25:37;;;;;;;;;;;;;;;25.89;44.82;102247.53;5058062;28;19939;-71
2023/09/05 02:28:04;;;;;;;;;;;;;;;25.90;45.04;102243.84;5054638;28;20617;-72
2023/09/05 02:30:30;;;;;;;;;;;;;;;25.87;45.04;102246.06;5057034;28;20041;-72
2023/09/05 02:32:56;;;;;;;;;;;;;;;25.88;44.90;102242.38;5053164;28;19995;-72
2023/09/05 02:35:25;;;;;;;;;;;;;;;25.87;44.92;102249.56;5056443;28;19955;-72
2023/09/05 02:37:51;;;;;;;;;;;;;;;25.87;44.71;102244.22;5051224;28;19945;-72
2023/09/05 02:40:17;;;;;;;;;;;;;;;25.88;44.99;102245.03;5058332;28;19951;-72
2023/09/05 02:42:42;;;;;;;;;;;;;;;25.87;44.74;102246.88;5053597;28;20005;-72
2023/09/05 02:45:08;;;;;;;;;;;;;;;25.88;45.08;102248.53;5055487;28;20053;-72
2023/09/05 02:47:33;;;;;;;;;;;;;;;25.88;44.57;102245.88;5056475;28;19956;-72
2023/09/05 02:49:59;;;;;;;;;;;;;;;25.87;44.72;102252.22;5053574;28;19943;-71
2023/09/05 02:52:24;;;;;;;;;;;;;;;25.87;44.64;102246.88;5055970;28;20450;-72
2023/09/05 02:54:50;;;;;;;;;;;;;;;25.87;44.86;102248.72;5053402;28;20080;-72
2023/09/05 02:57:15;;;;;;;;;;;;;;;25.86;44.62;102242.56;5055737;28;20021;-72
2023/09/05 02:59:41;;;;;;;;;;;;;;;25.86;44.62;102245.22;5057390;28;19952;-72
2023/09/05 03:02:06;;;;;;;;;;;;;;;25.86;44.91;102247.06;5059639;28;19970;-72
2023/09/05 03:04:32;;;;;;;;;;;;;;;25.84;44.66;102239.22;5055556;28;19940;-71
2023/09/05 03:07:01;;;;;;;;;;;;;;;25.86;44.62;102239.91;5057335;28;20669;-72
2023/09/05 03:09:28;;;;;;;;;;;;;;;25.86;44.51;102241.75;5073755;28;20381;-70
2023/09/05 03:11:54;;;;;;;;;;;;;;;25.85;44.61;102229.38;5051565;28;19964;-71
2023/09/05 03:14:19;;;;;;;;;;;;;;;25.85;44.60;102235.56;5052602;28;19942;-72
2023/09/05 03:16:45;;;;;;;;;;;;;;;25.86;44.52;102239.91;5056600;28;19964;-73
2023/09/05 03:19:11;;;;;;;;;;;;;;;25.85;44.87;102240.06;5075575;28;19957;-72
2023/09/05 03:21:37;;;;;;;;;;;;;;;25.85;44.60;102232.91;5070684;28;20004;-72
2023/09/05 03:24:03;;;;;;;;;;;;;;;25.84;44.89;102233.06;5059421;28;20324;-72
2023/09/05 03:26:28;;;;;;;;;;;;;;;25.86;44.80;102225.72;5061484;28;19947;-72
2023/09/05 03:28:54;;;;;;;;;;;;;;;25.85;44.89;102218.72;5042629;28;19950;-71
2023/09/05 03:31:21;;;;;;;;;;;;;;;25.85;44.59;102219.56;5055758;28;20044;-72
2023/09/05 03:33:47;;;;;;;;;;;;;;;25.84;44.81;102211.72;5075950;28;20053;-72
2023/09/05 03:36:13;;;;;;;;;;;;;;;25.83;44.73;102213.56;5057561;28;20385;-71
2023/09/05 03:38:38;;;;;;;;;;;;;;;25.85;44.55;102216.03;5055125;28;20031;-71
2023/09/05 03:41:04;;;;;;;;;;;;;;;25.83;44.57;102210.06;5055828;28;20080;-72
2023/09/05 03:43:29;;;;;;;;;;;;;;;25.87;44.48;102211.38;5051842;28;19943;-72
2023/09/05 03:45:55;;;;;;;;;;;;;;;25.83;44.66;102212.72;5060445;28;20041;-71
2023/09/05 03:48:20;;;;;;;;;;;;;;;25.82;44.77;102206.56;5058055;28;20160;-72
2023/09/05 03:50:46;;;;;;;;;;;;;;;25.81;44.54;102209.44;5053884;28;20328;-72
2023/09/05 03:53:11;;;;;;;;;;;;;;;25.83;44.81;102215.41;5086087;27;19996;-72
2023/09/05 03:55:36;;;;;;;;;;;;;;;25.80;44.81;102213.09;5061531;28;21042;-72
2023/09/05 03:58:02;;;;;;;;;;;;;;;25.83;44.46;102224.22;5056729;28;19943;-72
2023/09/05 04:00:29;;;;;;;;;;;;;;;25.81;44.80;102222.78;5056963;28;21059;-72
2023/09/05 04:02:55;;;;;;;;;;;;;;;25.83;44.72;102223.41;5059211;28;19966;-70
2023/09/05 04:05:21;;;;;;;;;;;;;;;25.81;44.48;102220.94;5054513;28;19947;-72
2023/09/05 04:07:47;;;;;;;;;;;;;;;25.79;44.83;102220.28;5060031;28;20042;-72
2023/09/05 04:10:12;;;;;;;;;;;;;;;25.79;44.44;102222.13;5057241;28;19949;-72
2023/09/05 04:12:38;;;;;;;;;;;;;;;25.79;44.66;102219.47;5056376;28;19951;-71
2023/09/05 04:15:03;;;;;;;;;;;;;;;25.80;44.51;102219.28;5058781;28;19958;-72
2023/09/05 04:17:29;;;;;;;;;;;;;;;25.80;44.70;102213.09;5062702;28;19941;-72
2023/09/05 04:19:55;;;;;;;;;;;;;;;25.79;44.70;102214.94;5059291;28;19946;-72
2023/09/05 04:22:23;;;;;;;;;;;;;;;25.78;44.70;102209.81;5038926;28;20024;-72
2023/09/05 04:24:55;;;;;;;;;;;;;;;25.78;44.77;102212.47;5050943;28;19988;-72
2023/09/05 04:27:21;;;;;;;;;;;;;;;25.79;44.71;102209.63;5054931;28;19995;-71
2023/09/05 04:29:51;;;;;;;;;;;;;;;25.80;44.70;102213.94;5050957;28;19953;-72
2023/09/05 04:32:17;;;;;;;;;;;;;;;25.79;44.76;102209.63;5061084;28;19951;-72
2023/09/05 04:34:43;;;;;;;;;;;;;;;25.80;44.72;102213.09;5057205;28;19948;-71
2023/09/05 04:37:09;;;;;;;;;;;;;;;25.79;44.64;102211.47;5057972;28;20576;-71
2023/09/05 04:39:34;;;;;;;;;;;;;;;25.81;44.73;102206.75;5054865;28;19951;-71
2023/09/05 04:42:00;;;;;;;;;;;;;;;25.79;44.70;102198.94;5059692;28;19961;-71
2023/09/05 04:44:27;;;;;;;;;;;;;;;25.77;44.70;102198.31;5061714;28;20042;-72
2023/09/05 04:46:52;;;;;;;;;;;;;;;25.76;44.42;102204.66;5057569;28;20699;-72
2023/09/05 04:49:18;;;;;;;;;;;;;;;25.77;44.66;102202.81;5057074;28;19951;-72
2023/09/05 04:51:43;;;;;;;;;;;;;;;25.77;44.70;102206.31;5054464;28;20422;-71
2023/09/05 04:54:08;;;;;;;;;;;;;;;25.76;44.64;102211.84;5054701;28;20368;-71
2023/09/05 04:56:34;;;;;;;;;;;;;;;25.74;44.73;102209.34;5056007;28;20076;-72
2023/09/05 04:58:59;;;;;;;;;;;;;;;25.74;44.40;102205.84;5058640;28;19983;-71
2023/09/05 05:01:24;;;;;;;;;;;;;;;25.74;44.69;102204.03;5053627;28;20445;-72
2023/09/05 05:03:50;;;;;;;;;;;;;;;25.73;44.76;102210.38;5057405;28;19979;-72
2023/09/05 05:06:15;;;;;;;;;;;;;;;25.74;44.39;102205.84;5056716;28;20031;-72
2023/09/05 05:08:41;;;;;;;;;;;;;;;25.73;44.35;102202.38;5058843;28;20419;-71
2023/09/05 05:11:06;;;;;;;;;;;;;;;25.74;44.45;102206.69;5056081;28;19975;-73
2023/09/05 05:13:33;;;;;;;;;;;;;;;25.75;44.43;102196.84;5058634;28;19952;-72
2023/09/05 05:15:59;;;;;;;;;;;;;;;25.74;44.41;102196.00;5059163;28;19980;-72
2023/09/05 05:18:24;;;;;;;;;;;;;;;25.73;44.68;102191.69;5054702;28;19957;-72
2023/09/05 05:20:49;;;;;;;;;;;;;;;25.76;44.54;102187.81;5056391;28;19985;-72
2023/09/05 05:23:15;;;;;;;;;;;;;;;25.72;44.70;102184.72;5059810;28;20011;-72
2023/09/05 05:25:40;;;;;;;;;;;;;;;25.73;44.46;102185.53;5060838;28;19945;-72
2023/09/05 05:28:05;;;;;;;;;;;;;;;25.74;44.60;102188.00;5058038;28;19950;-71
2023/09/05 05:30:35;;;;;;;;;;;;;;;25.72;44.62;102191.88;5059173;28;19954;-72
2023/09/05 05:33:01;;;;;;;;;;;;;;;25.73;44.54;102197.03;5058935;28;20463;-72
2023/09/05 05:35:26;;;;;;;;;;;;;;;25.73;44.49;102202.38;5060739;28;19982;-71
2023/09/05 05:37:51;;;;;;;;;;;;;;;25.73;44.34;102194.38;5058104;28;19945;-72
2023/09/05 05:40:17;;;;;;;;;;;;;;;25.74;44.46;102195.19;5058384;28;19950;-72
2023/09/05 05:42:43;;;;;;;;;;;;;;;25.73;44.26;102190.88;5060379;28;20005;-72
2023/09/05 05:45:09;;;;;;;;;;;;;;;25.72;44.45;102200.72;5059274;28;20416;-72
2023/09/05 05:47:34;;;;;;;;;;;;;;;25.72;44.56;102194.56;5056176;28;20476;-72
2023/09/05 05:50:00;;;;;;;;;;;;;;;25.72;44.55;102195.38;5055302;28;20072;-72
2023/09/05 05:52:25;;;;;;;;;;;;;;;25.73;44.58;102191.69;5058148;28;19956;-72
2023/09/05 05:54:50;;;;;;;;;;;;;;;25.73;44.65;102188.19;5055342;28;19964;-71
2023/09/05 05:57:16;;;;;;;;;;;;;;;25.72;44.61;102190.03;5055631;28;20009;-72
2023/09/05 05:59:41;;;;;;;;;;;;;;;25.73;44.55;102186.34;5054185;28;19947;-71
2023/09/05 06:02:07;;;;;;;;;;;;;;;25.72;44.59;102184.72;5058154;28;19979;-71
2023/09/05 06:04:33;;;;;;;;;;;;;;;25.74;44.14;102184.53;5051509;28;20069;-72
2023/09/05 06:06:58;;;;;;;;;;;;;;;25.74;44.37;102189.84;5052965;28;19983;-72
2023/09/05 06:09:23;;;;;;;;;;;;;;;25.72;44.55;102189.22;5058386;28;19945;-72
2023/09/05 06:11:49;;;;;;;;;;;;;;;25.71;44.46;102177.72;5052365;28;19956;-72
2023/09/05 06:14:14;;;;;;;;;;;;;;;25.71;44.27;102183.06;5056045;28;21979;-72
2023/09/05 06:16:40;;;;;;;;;;;;;;;25.71;44.54;102175.03;5054543;28;19953;-72
2023/09/05 06:19:07;;;;;;;;;;;;;;;25.70;44.27;102170.72;5060945;28;20750;-72
2023/09/05 06:21:32;;;;;;;;;;;;;;;25.73;44.48;102180.19;5057484;28;19968;-72
2023/09/05 06:23:58;;;;;;;;;;;;;;;25.72;44.31;102182.03;5056142;28;20632;-71
2023/09/05 06:26:24;;;;;;;;;;;;;;;25.71;44.41;102183.06;5061462;28;19941;-72
2023/09/05 06:28:51;;;;;;;;;;;;;;;25.73;44.48;102183.69;5054328;28;19957;-71
2023/09/05 06:31:16;;;;;;;;;;;;;;;25.76;44.42;102187.81;5052552;28;20389;-72
2023/09/05 06:33:42;;;;;;;;;;;;;;;25.75;44.41;102184.31;5057406;28;19991;-72
2023/09/05 06:36:07;;;;;;;;;;;;;;;25.76;44.63;102190.50;5057974;28;19944;-72
2023/09/05 06:38:33;;;;;;;;;;;;;;;25.75;44.46;102196.84;5058492;28;20445;-71
2023/09/05 06:41:09;;;;;;;;;;;;;;;25.75;44.44;102203.00;5060676;28;19941;-72
2023/09/05 06:43:34;;;;;;;;;;;;;;;25.76;44.50;102201.16;5058625;28;20056;-72
2023/09/05 06:46:03;;;;;;;;;;;;;;;25.79;44.24;102201.63;5054323;28;20037;-72
2023/09/05 06:48:29;;;;;;;;;;;;;;;25.80;44.08;102208.59;5054905;28;19943;-71
2023/09/05 06:50:55;;;;;;;;;;;;;;;25.80;44.27;102208.59;5053628;28;20080;-72
2023/09/05 06:53:21;;;;;;;;;;;;;;;25.82;43.99;102203.06;5051962;28;19955;-72
2023/09/05 06:55:46;;;;;;;;;;;;;;;25.82;44.38;102206.56;5055531;28;19943;-71
2023/09/05 06:58:12;;;;;;;;;;;;;;;25.83;44.07;102200.22;5058758;28;20046;-72
2023/09/05 07:00:37;;;;;;;;;;;;;;;25.82;44.29;102206.56;5052695;28;20281;-72
2023/09/05 07:03:02;;;;;;;;;;;;;;;25.85;44.47;102214.22;5081559;28;19963;-72
2023/09/05 07:05:28;;;;;;;;;;;;;;;25.85;44.32;102211.56;5054917;28;20024;-71
2023/09/05 07:07:54;;;;;;;;;;;;;;;25.87;44.33;102211.38;5059762;28;19944;-72
2023/09/05 07:10:19;;;;;;;;;;;;;;;25.88;44.17;102213.03;5054686;28;20412;-72
2023/09/05 07:12:45;;;;;;;;;;;;;;;25.88;44.50;102221.03;5053429;28;19954;-72
2023/09/05 07:15:10;;;;;;;;;;;;;;;25.91;44.41;102220.66;5059144;28;19954;-72
2023/09/05 07:17:35;;;;;;;;;;;;;;;25.90;44.43;102219.00;5057714;28;20384;-72
2023/09/05 07:20:01;;;;;;;;;;;;;;;25.92;44.23;102221.47;5055470;28;20576;-72
2023/09/05 07:22:26;;;;;;;;;;;;;;;25.95;44.13;102221.09;5048593;28;20070;-72
2023/09/05 07:24:52;;;;;;;;;;;;;;;25.75;44.44;102199.50;5062678;28;19982;-72
2023/09/05 07:27:17;;;;;;;;;;;;;;;25.96;44.53;102220.91;5061666;28;19946;-72
2023/09/05 07:29:43;;;;;;;;;;;;;;;25.97;44.18;102222.56;5058303;28;19941;-71
2023/09/05 07:32:08;;;;;;;;;;;;;;;25.98;44.58;102223.38;5064455;28;20448;-71
2023/09/05 07:34:34;;;;;;;;;;;;;;;26.00;44.60;102222.19;5063952;28;19971;-72
2023/09/05 07:36:59;;;;;;;;;;;;;;;25.99;44.59;102212.53;5061452;28;19977;-71
2023/09/05 07:39:24;;;;;;;;;;;;;;;26.04;44.28;102218.16;5059593;28;20023;-72
2023/09/05 07:41:50;;;;;;;;;;;;;;;26.04;44.26;102204.81;5059784;28;20428;-73
2023/09/05 07:44:15;;;;;;;;;;;;;;;26.06;44.27;102213.44;5057324;28;20370;-71
2023/09/05 07:46:41;;;;;;;;;;;;;;;26.09;44.30;102210.38;5059697;28;19939;-71
2023/09/05 07:49:06;;;;;;;;;;;;;;;26.07;44.57;102200.91;5060193;28;19945;-72
2023/09/05 07:51:31;;;;;;;;;;;;;;;26.07;44.31;102204.41;5056972;28;19984;-72
2023/09/05 07:54:03;;;;;;;;;;;;;;;26.09;44.27;102204.22;5060682;28;19963;-72
2023/09/05 07:56:29;;;;;;;;;;;;;;;26.11;44.58;102211.03;5058921;28;20037;-72
2023/09/05 07:58:54;;;;;;;;;;;;;;;26.11;44.33;102207.53;5056468;28;20079;-72
2023/09/05 08:01:20;;;;;;;;;;;;;;;26.10;44.60;102212.03;5062673;28;19941;-72
2023/09/05 08:03:47;;;;;;;;;;;;;;;26.15;44.70;102220.31;5063731;28;19990;-72
2023/09/05 08:06:12;;;;;;;;;;;;;;;26.14;44.57;102217.81;5058562;28;19948;-72
2023/09/05 08:08:38;;;;;;;;;;;;;;;26.16;44.56;102213.13;5063539;28;20514;-72
2023/09/05 08:11:03;;;;;;;;;;;;;;;26.15;44.35;102206.97;5062741;28;19943;-72
2023/09/05 08:13:30;;;;;;;;;;;;;;;26.15;44.33;102198.94;5060819;28;19947;-72
2023/09/05 08:15:55;;;;;;;;;;;;;;;26.19;44.68;102207.41;5061633;28;19949;-72
2023/09/05 08:18:20;;;;;;;;;;;;;;;26.20;44.41;102207.22;5062662;28;20401;-72
2023/09/05 08:20:46;;;;;;;;;;;;;;;26.21;44.61;102213.38;5062257;28;19983;-72
2023/09/05 08:23:11;;;;;;;;;;;;;;;26.23;44.58;102211.38;5053690;28;20010;-72
2023/09/05 08:25:37;;;;;;;;;;;;;;;26.21;44.30;102216.03;5059590;28;20035;-72
2023/09/05 08:28:03;;;;;;;;;;;;;;;26.23;44.79;102218.56;5063597;28;19994;-72
2023/09/05 08:30:28;;;;;;;;;;;;;;;26.24;44.33;102222.88;5064407;28;20399;-72
2023/09/05 08:32:57;;;;;;;;;;;;;;;26.23;44.44;102219.38;5064131;28;19942;-72
2023/09/05 08:35:23;;;;;;;;;;;;;;;26.22;44.76;102219.56;5059242;28;19941;-72
2023/09/05 08:37:49;;;;;;;;;;;;;;;26.26;44.41;102226.19;5055766;28;19946;-72
2023/09/05 08:40:15;;;;;;;;;;;;;;;26.27;44.61;102220.66;5060418;28;19948;-72
2023/09/05 08:42:42;;;;;;;;;;;;;;;26.27;44.75;102217.97;5055911;28;19964;-72
2023/09/05 08:45:11;;;;;;;;;;;;;;;26.26;44.36;102213.66;5060091;28;19943;-72
2023/09/05 08:47:37;;;;;;;;;;;;;;;26.26;44.43;102211.00;5056810;28;20675;-73
2023/09/05 08:50:04;;;;;;;;;;;;;;;26.31;44.58;102213.09;5061688;28;19947;-72
2023/09/05 08:52:32;;;;;;;;;;;;;;;26.28;44.59;102216.13;5060190;28;20042;-72
2023/09/05 08:54:58;;;;;;;;;;;;;;;26.31;44.40;102208.56;5052721;28;19967;-72
2023/09/05 08:57:24;;;;;;;;;;;;;;;26.32;44.59;102215.56;5059795;28;20898;-72
2023/09/05 08:59:49;;;;;;;;;;;;;;;26.32;44.63;102214.72;5057249;28;20427;-71
2023/09/05 09:02:16;;;;;;;;;;;;;;;26.34;44.69;102210.03;5054989;28;19961;-71
2023/09/05 09:04:50;;;;;;;;;;;;;;;26.34;44.34;102210.84;5063984;28;19939;-72
2023/09/05 09:07:16;;;;;;;;;;;;;;;26.31;44.87;102200.56;5058312;28;20394;-71
2023/09/05 09:09:41;;;;;;;;;;;;;;;26.35;44.78;102195.69;5061097;28;20076;-71
2023/09/05 09:12:07;;;;;;;;;;;;;;;26.35;44.43;102193.00;5061007;28;19946;-71
2023/09/05 09:14:32;;;;;;;;;;;;;;;26.33;44.76;102193.19;5059206;28;20441;-71
2023/09/05 09:17:01;;;;;;;;;;;;;;;26.33;44.41;102195.84;5056823;28;20440;-72
2023/09/05 09:19:29;;;;;;;;;;;;;;;26.35;44.34;102191.19;5062551;28;20038;-72
2023/09/05 09:21:54;;;;;;;;;;;;;;;26.36;44.68;102192.81;5062739;28;20259;-71
2023/09/05 09:24:20;;;;;;;;;;;;;;;26.38;44.80;102195.31;5056824;28;20010;-72
2023/09/05 09:26:45;;;;;;;;;;;;;;;26.19;44.88;102170.03;5060976;28;19954;-72
2023/09/05 09:29:11;;;;;;;;;;;;;;;26.37;44.72;102196.31;5056265;28;20017;-72
2023/09/05 09:31:37;;;;;;;;;;;;;;;26.37;44.86;102194.47;5057153;28;19952;-71
2023/09/05 09:34:03;;;;;;;;;;;;;;;26.38;44.45;102198.78;5055479;28;19994;-71
2023/09/05 09:36:33;;;;;;;;;;;;;;;26.36;44.59;102195.50;5059303;28;19982;-71
2023/09/05 09:39:06;;;;;;;;;;;;;;;26.37;44.74;102197.16;5060894;28;20325;-72
2023/09/05 09:41:31;;;;;;;;;;;;;;;26.38;44.85;102190.78;5063875;28;19947;-72
2023/09/05 09:44:00;;;;;;;;;;;;;;;26.40;44.82;102193.28;5053867;28;20377;-71
2023/09/05 09:46:25;;;;;;;;;;;;;;;26.37;44.54;102189.13;5060567;28;19976;-69
2023/09/05 09:48:52;;;;;;;;;;;;;;;26.38;44.73;102196.13;5056787;28;20038;-71
2023/09/05 09:51:18;;;;;;;;;;;;;;;26.39;44.90;102192.47;5057873;28;20776;-71
2023/09/05 09:53:48;;;;;;;;;;;;;;;26.38;44.79;102193.47;5059320;28;19984;-72
2023/09/05 09:56:18;;;;;;;;;;;;;;;26.39;44.79;102189.81;5057667;28;19946;-71
2023/09/05 09:58:45;;;;;;;;;;;;;;;26.41;44.71;102189.59;5059238;28;20445;-71
2023/09/05 10:01:11;;;;;;;;;;;;;;;26.44;44.59;102200.72;5060756;28;19979;-71
2023/09/05 10:03:40;;;;;;;;;;;;;;;26.41;44.56;102195.78;5062089;28;19965;-71
2023/09/05 10:06:07;;;;;;;;;;;;;;;26.47;44.45;102194.16;5053917;28;19939;-71
2023/09/05 10:08:33;;;;;;;;;;;;;;;26.44;44.72;102190.03;5061756;28;20023;-70
2023/09/05 10:10:58;;;;;;;;;;;;;;;26.44;44.77;102190.03;5054910;28;19941;-71
2023/09/05 10:13:27;;;;;;;;;;;;;;;26.45;44.78;102183.69;5058024;28;19936;-71
2023/09/05 10:15:54;;;;;;;;;;;;;;;26.43;44.68;102176.88;5061836;28;20009;-71
2023/09/05 10:18:20;;;;;;;;;;;;;;;26.46;44.85;102173.81;5059606;28;19942;-71
2023/09/05 10:20:46;;;;;;;;;;;;;;;26.44;44.52;102181.19;5055804;28;19950;-71
2023/09/05 10:23:12;;;;;;;;;;;;;;;26.43;44.73;102169.69;5059509;28;19986;-71
2023/09/05 10:25:39;;;;;;;;;;;;;;;26.45;44.89;102175.66;5056142;28;19946;-71
2023/09/05 10:28:05;;;;;;;;;;;;;;;26.45;44.63;102166.84;5062500;28;19989;-71
2023/09/05 10:30:38;;;;;;;;;;;;;;;26.47;44.87;102164.78;5053710;28;19985;-71
2023/09/05 10:33:04;;;;;;;;;;;;;;;26.45;44.89;102162.31;5057937;28;20063;-72
2023/09/05 10:35:30;;;;;;;;;;;;;;;26.49;44.86;102150.22;5058457;28;19949;-71
2023/09/05 10:38:02;;;;;;;;;;;;;;;26.47;44.74;102154.94;5054829;28;19994;-71
2023/09/05 10:40:34;;;;;;;;;;;;;;;26.46;44.88;102150.59;5053684;28;20383;-71
2023/09/05 10:43:01;;;;;;;;;;;;;;;26.48;44.78;102145.91;5051344;28;20007;-70
2023/09/05 10:45:27;;;;;;;;;;;;;;;26.46;44.85;102134.59;5055666;28;20341;-71
2023/09/05 10:47:55;;;;;;;;;;;;;;;26.47;44.59;102136.22;5059760;28;19942;-71
2023/09/05 10:50:22;;;;;;;;;;;;;;;26.49;44.80;102136.03;5057094;28;19967;-71
2023/09/05 10:52:51;;;;;;;;;;;;;;;26.50;44.55;102135.03;5057074;28;20430;-71
2023/09/05 10:55:29;;;;;;;;;;;;;;;26.49;44.87;102128.84;5059226;28;20018;-71
2023/09/05 10:57:55;;;;;;;;;;;;;;;26.42;44.53;102108.47;5055826;28;19944;-71
2023/09/05 11:00:20;;;;;;;;;;;;;;;26.51;44.84;102123.31;5060101;28;20022;-71
2023/09/05 11:02:47;;;;;;;;;;;;;;;26.50;44.98;102116.31;5058117;28;19955;-71
2023/09/05 11:05:19;;;;;;;;;;;;;;;26.50;44.59;102119.00;5061283;28;20463;-71
2023/09/05 11:07:50;;;;;;;;;;;;;;;26.49;44.52;102118.16;5064152;28;19941;-71
2023/09/05 11:10:24;;;;;;;;;;;;;;;26.50;44.57;102114.47;5060225;28;20499;-72
2023/09/05 11:12:50;;;;;;;;;;;;;;;26.52;45.03;102111.59;5065536;28;20102;-70
2023/09/05 11:15:28;;;;;;;;;;;;;;;26.50;45.15;102111.81;5056288;28;20721;-70
2023/09/05 11:18:08;;;;;;;;;;;;;;;26.50;45.13;102117.16;5064075;28;19936;-70
2023/09/05 11:20:39;;;;;;;;;;;;;;;26.49;44.97;102118.16;5063776;28;20436;-71
2023/09/05 11:23:13;;;;;;;;;;;;;;;26.55;45.06;102118.41;5066515;28;20326;-70
2023/09/05 11:25:46;;;;;;;;;;;;;;;26.53;45.27;102118.59;5055245;28;19949;-70
2023/09/05 11:28:12;;;;;;;;;;;;;;;26.52;44.79;102119.63;5057998;28;19953;-69
2023/09/05 11:30:38;;;;;;;;;;;;;;;26.52;45.03;102118.78;5058361;28;20395;-71
2023/09/05 11:33:10;;;;;;;;;;;;;;;26.54;44.89;102127.44;5060222;28;20422;-70
2023/09/05 11:35:35;;;;;;;;;;;;;;;26.53;44.85;102125.78;5062728;28;19947;-70
2023/09/05 11:38:03;;;;;;;;;;;;;;;26.53;45.13;102123.94;5062644;28;19983;-70
2023/09/05 11:40:30;;;;;;;;;;;;;;;26.54;45.10;102119.44;5052698;28;19996;-70
2023/09/05 11:43:03;;;;;;;;;;;;;;;26.56;45.19;102115.53;5062183;28;20039;-71
2023/09/05 11:45:30;;;;;;;;;;;;;;;26.57;44.88;102116.38;5062641;28;20060;-71
2023/09/05 11:47:56;;;;;;;;;;;;;;;26.54;44.81;102112.22;5060838;28;19939;-71
2023/09/05 11:50:22;;;;;;;;;;;;;;;26.55;45.31;102105.88;5071126;28;19942;-71
2023/09/05 11:52:51;;;;;;;;;;;;;;;26.53;45.27;102115.94;5061686;28;20003;-71
2023/09/05 11:55:17;;;;;;;;;;;;;;;26.52;45.31;102113.44;5054395;28;19965;-70
2023/09/05 11:57:43;;;;;;;;;;;;;;;26.53;45.33;102113.25;5056153;28;20006;-70
2023/09/05 12:00:12;;;;;;;;;;;;;;;26.55;45.17;102108.53;5056524;28;19945;-70
2023/09/05 12:02:37;;;;;;;;;;;;;;;26.54;45.26;102098.06;5063148;28;20002;-71
2023/09/05 12:05:06;;;;;;;;;;;;;;;26.53;45.06;102104.41;5057313;28;20045;-71
2023/09/05 12:07:31;;;;;;;;;;;;;;;26.53;45.35;102099.91;5065556;28;22779;-71
2023/09/05 12:09:57;;;;;;;;;;;;;;;26.57;45.17;102100.34;5063258;28;19993;-71
2023/09/05 12:12:23;;;;;;;;;;;;;;;26.55;44.97;102102.38;5057078;28;19949;-71
2023/09/05 12:14:52;;;;;;;;;;;;;;;26.56;45.04;102096.84;5060592;28;20704;-71
2023/09/05 12:17:22;;;;;;;;;;;;;;;26.37;44.99;102065.47;5062879;28;19992;-71
2023/09/05 12:19:48;;;;;;;;;;;;;;;26.58;45.30;102099.34;5055879;28;19940;-71
2023/09/05 12:22:20;;;;;;;;;;;;;;;26.57;45.14;102095.00;5055840;28;20055;-71
2023/09/05 12:24:45;;;;;;;;;;;;;;;26.55;45.02;102092.50;5058187;28;19985;-71
2023/09/05 12:27:23;;;;;;;;;;;;;;;26.58;45.23;102099.34;5061462;28;20003;-72
2023/09/05 12:29:49;;;;;;;;;;;;;;;26.56;45.23;102099.50;5056365;28;20087;-72
2023/09/05 12:32:14;;;;;;;;;;;;;;;26.58;45.20;102097.50;5052729;28;20035;-72